Time;durP1;ratioP1;P1;durP2;ratioP2;P2;SDS_P1;SDS_P2;PMS_P1;PMS_P2;Temp;Humidity;BMP_temperature;BMP_pressure;BME280_temperature;BME280_humidity;BME280_pressure;Samples;Min_cycle;Max_cycle;Signal;HPM_P1;HPM_P2
2023/01/03 00:02:25;;;;;;;22.90;7.33;;;9.60;99.90;;;;;;5049145;28;20480;-60
2023/01/03 00:04:52;;;;;;;28.53;8.03;;;9.80;99.90;;;;;;5050729;28;20738;-60
2023/01/03 00:07:32;;;;;;;23.83;6.83;;;9.80;99.90;;;;;;5052831;28;20479;-61
2023/01/03 00:09:59;;;;;;;36.90;12.80;;;9.90;99.90;;;;;;5039367;28;21030;-60
2023/01/03 00:12:26;;;;;;;22.70;8.40;;;;;;;;;;5049496;28;20536;-60
2023/01/03 00:14:53;;;;;;;26.30;6.57;;;;;;;;;;5055682;28;20998;-61
2023/01/03 00:17:21;;;;;;;35.93;9.53;;;9.80;99.90;;;;;;5054869;28;20488;-60
2023/01/03 00:19:48;;;;;;;25.87;7.60;;;9.80;99.90;;;;;;5042190;28;21038;-60
2023/01/03 00:22:16;;;;;;;35.63;7.03;;;;;;;;;;5051803;28;20590;-60
2023/01/03 00:24:43;;;;;;;36.87;8.90;;;;;;;;;;5054787;28;20747;-60
2023/01/03 00:27:10;;;;;;;55.00;14.17;;;9.80;99.90;;;;;;5053927;28;20520;-60
2023/01/03 00:29:37;;;;;;;28.70;6.97;;;9.80;99.90;;;;;;5054662;28;21068;-60
2023/01/03 00:32:04;;;;;;;47.87;12.33;;;9.80;99.90;;;;;;5044979;28;20503;-60
2023/01/03 00:34:33;;;;;;;29.73;8.27;;;9.70;99.90;;;;;;5083290;28;20475;-60
2023/01/03 00:37:00;;;;;;;58.83;15.00;;;9.70;99.90;;;;;;5054524;28;20898;-60
2023/01/03 00:39:27;;;;;;;38.40;10.13;;;;;;;;;;5054155;28;20884;-60
2023/01/03 00:41:54;;;;;;;36.97;9.53;;;;;;;;;;5050391;28;20580;-60
2023/01/03 00:44:21;;;;;;;29.97;8.40;;;9.80;99.90;;;;;;5054029;28;20471;-60
2023/01/03 00:46:48;;;;;;;50.37;12.67;;;;;;;;;;5054051;28;20578;-60
2023/01/03 00:49:15;;;;;;;50.13;11.57;;;;;;;;;;5054263;28;20533;-60
2023/01/03 00:51:44;;;;;;;32.10;8.40;;;;;;;;;;5050850;28;20505;-61
2023/01/03 00:54:12;;;;;;;37.30;9.97;;;9.80;99.90;;;;;;5054974;28;20999;-60
2023/01/03 00:56:40;;;;;;;44.67;12.07;;;9.80;99.90;;;;;;5053806;28;21047;-60
2023/01/03 00:59:08;;;;;;;50.67;13.70;;;9.80;99.90;;;;;;5052272;28;20533;-60
2023/01/03 01:01:37;;;;;;;31.53;8.50;;;9.90;99.90;;;;;;5050257;28;20800;-60
2023/01/03 01:04:06;;;;;;;53.40;11.47;;;10.40;99.90;;;;;;5053562;28;20482;-61
2023/01/03 01:06:34;;;;;;;20.47;7.87;;;9.90;99.90;;;;;;5069568;28;20903;-61
2023/01/03 01:09:05;;;;;;;37.60;10.50;;;9.90;99.90;;;;;;5056472;28;20799;-61
2023/01/03 01:11:32;;;;;;;31.83;8.60;;;;;;;;;;5050788;28;20483;-61
2023/01/03 01:13:59;;;;;;;43.83;13.00;;;;;;;;;;5054527;28;20475;-61
2023/01/03 01:16:27;;;;;;;22.30;8.37;;;9.90;99.90;;;;;;5053534;28;20939;-60
2023/01/03 01:18:54;;;;;;;35.97;8.27;;;9.90;99.90;;;;;;5075651;28;20479;-60
2023/01/03 01:21:23;;;;;;;19.87;7.10;;;9.90;99.90;;;;;;5050290;28;20472;-61
2023/01/03 01:23:50;;;;;;;24.70;7.93;;;9.80;99.90;;;;;;5052958;28;20824;-61
2023/01/03 01:26:21;;;;;;;26.33;6.77;;;9.80;99.90;;;;;;5053745;28;20516;-61
2023/01/03 01:28:48;;;;;;;20.43;7.13;;;9.80;99.90;;;;;;5052311;28;20888;-61
2023/01/03 01:31:16;;;;;;;22.97;8.10;;;;;;;;;;5049608;28;20479;-61
2023/01/03 01:33:43;;;;;;;32.70;10.53;;;9.70;99.90;;;;;;5053164;28;20574;-61
2023/01/03 01:36:14;;;;;;;35.70;10.43;;;9.70;99.90;;;;;;5054001;28;20491;-61
2023/01/03 01:38:41;;;;;;;25.50;7.73;;;9.50;99.90;;;;;;5052407;28;20483;-61
2023/01/03 01:41:08;;;;;;;36.30;11.30;;;9.40;99.90;;;;;;5049003;28;20479;-60
2023/01/03 01:46:35;;;;;;;20.37;7.30;;;9.20;99.90;;;;;;5052526;28;20579;-60
2023/01/03 01:49:04;;;;;;;37.03;12.50;;;;;;;;;;5051512;28;20486;-61
2023/01/03 01:51:34;;;;;;;28.57;6.00;;;9.00;99.90;;;;;;5049017;28;20877;-60
2023/01/03 01:54:04;;;;;;;36.63;10.40;;;9.00;99.90;;;;;;5053383;28;20480;-60
2023/01/03 01:56:34;;;;;;;21.63;6.60;;;7.60;99.90;;;;;;5051548;28;20736;-60
2023/01/03 01:59:03;;;;;;;44.83;13.20;;;8.90;99.90;;;;;;5052435;28;20684;-60
2023/01/03 02:01:31;;;;;;;23.77;7.77;;;8.80;99.90;;;;;;5048450;28;20483;-61
2023/01/03 02:04:02;;;;;;;22.63;8.10;;;8.80;99.90;;;;;;5075380;28;20485;-60
2023/01/03 02:06:30;;;;;;;27.90;7.93;;;;;;;;;;5052810;28;20475;-59
2023/01/03 02:08:57;;;;;;;33.27;9.20;;;8.90;99.90;;;;;;5052041;28;20893;-60
2023/01/03 02:11:33;;;;;;;19.93;6.17;;;8.90;99.90;;;;;;5049645;28;20481;-59
2023/01/03 02:14:16;;;;;;;48.73;15.60;;;8.70;99.90;;;;;;5052377;28;20486;-59
2023/01/03 02:16:54;;;;;;;24.47;7.83;;;8.60;99.90;;;;;;5051723;28;20491;-60
2023/01/03 02:20:03;;;;;;;28.43;8.30;;;8.60;99.90;;;;;;5052127;28;20478;-60
2023/01/03 02:23:06;;;;;;;24.33;8.57;;;8.60;99.90;;;;;;5038361;28;20987;-59
2023/01/03 02:26:09;;;;;;;24.23;8.70;;;8.70;99.90;;;;;;5052148;28;20510;-60
2023/01/03 02:29:00;;;;;;;22.83;7.17;;;8.70;99.90;;;;;;5051827;28;20478;-60
2023/01/03 02:31:33;;;;;;;29.57;9.67;;;;;;;;;;5043272;28;20926;-60
2023/01/03 02:34:04;;;;;;;53.20;15.70;;;8.50;99.90;;;;;;5050737;28;20471;-60
2023/01/03 02:36:40;;;;;;;27.00;9.17;;;8.40;99.90;;;;;;5051503;28;20471;-60
2023/01/03 02:39:14;;;;;;;53.37;15.50;;;8.40;99.90;;;;;;5052440;28;20471;-60
2023/01/03 02:41:45;;;;;;;36.00;11.00;;;8.60;99.90;;;;;;5048153;28;20884;-60
2023/01/03 02:44:21;;;;;;;33.47;9.53;;;8.70;99.90;;;;;;5052156;28;21161;-60
2023/01/03 02:46:52;;;;;;;33.37;11.10;;;8.60;99.90;;;;;;5052183;28;20744;-60
2023/01/03 02:49:26;;;;;;;28.03;9.50;;;8.50;99.90;;;;;;5052574;28;20479;-60
2023/01/03 02:51:54;;;;;;;28.30;10.83;;;;;;;;;;5037382;28;20483;-60
2023/01/03 02:54:26;;;;;;;27.87;10.30;;;8.50;99.90;;;;;;5053227;28;20619;-60
2023/01/03 02:56:59;;;;;;;28.17;9.53;;;8.60;99.90;;;;;;5074670;28;20493;-60
2023/01/03 02:59:32;;;;;;;28.67;8.73;;;8.60;99.90;;;;;;5042593;28;20483;-60
2023/01/03 03:02:02;;;;;;;39.47;12.33;;;8.60;99.90;;;;;;5047834;28;20483;-60
2023/01/03 03:04:30;;;;;;;28.87;10.30;;;8.60;99.90;;;;;;5049356;28;20873;-60
2023/01/03 03:06:59;;;;;;;24.90;9.73;;;;;;;;;;5051529;28;20483;-60
2023/01/03 03:09:26;;;;;;;21.97;8.03;;;8.80;99.90;;;;;;5074558;28;20559;-59
2023/01/03 03:14:42;;;;;;;21.23;8.50;;;9.20;99.90;;;;;;5051055;28;20564;-60
2023/01/03 03:17:15;;;;;;;29.93;11.10;;;9.30;99.90;;;;;;5050503;28;20498;-60
2023/01/03 03:25:17;;;;;;;20.40;8.63;;;;;;;;;;5049175;28;21418;-60
2023/01/03 03:30:32;;;;;;;29.40;11.47;;;;;;;;;;5046547;28;20482;-60
2023/01/03 03:33:05;;;;;;;35.20;13.83;;;;;;;;;;5051524;28;20501;-60
2023/01/03 03:35:36;;;;;;;25.00;9.60;;;9.20;99.90;;;;;;5049808;28;20498;-60
2023/01/03 03:38:06;;;;;;;41.07;15.20;;;9.10;99.90;;;;;;5051268;28;20475;-61
2023/01/03 03:46:20;;;;;;;29.17;8.57;;;9.30;99.90;;;;;;5069582;28;20917;-61
2023/01/03 03:51:37;;;;;;;20.13;7.93;;;;;;;;;;5057561;28;20820;-60
2023/01/03 03:54:07;;;;;;;44.57;13.67;;;9.30;99.90;;;;;;5049508;28;20477;-60
2023/01/03 03:56:36;;;;;;;28.53;8.57;;;9.50;99.90;;;;;;5083866;28;20481;-60
2023/01/03 03:59:06;;;;;;;32.00;9.67;;;9.50;99.90;;;;;;5049394;28;20515;-61
2023/01/03 04:01:33;;;;;;;17.67;6.87;;;9.40;99.90;;;;;;5077184;28;20558;-60
2023/01/03 04:04:06;;;;;;;51.47;12.83;;;9.40;99.90;;;;;;5057553;28;20832;-61
2023/01/03 04:06:36;;;;;;;23.50;8.67;;;9.30;99.90;;;;;;5057213;28;20475;-60
2023/01/03 04:09:03;;;;;;;45.83;14.30;;;9.20;99.90;;;;;;5057675;28;20487;-60
2023/01/03 04:11:30;;;;;;;17.63;8.33;;;9.90;99.90;;;;;;5054764;28;20850;-60
2023/01/03 04:13:57;;;;;;;27.93;10.23;;;9.30;99.90;;;;;;5049285;28;20498;-61
2023/01/03 04:16:23;;;;;;;25.97;7.50;;;9.30;99.90;;;;;;5083840;28;20494;-60
2023/01/03 04:18:50;;;;;;;29.33;10.40;;;;;;;;;;5055359;28;20479;-60
2023/01/03 04:21:18;;;;;;;27.70;8.27;;;9.50;99.90;;;;;;5047422;28;20984;-60
2023/01/03 04:23:45;;;;;;;27.10;8.30;;;9.50;99.90;;;;;;5056056;28;20848;-60
2023/01/03 04:26:12;;;;;;;33.40;11.60;;;;;;;;;;5068840;28;20550;-60
2023/01/03 04:28:39;;;;;;;29.87;8.67;;;9.70;99.90;;;;;;5072279;28;20479;-60
2023/01/03 04:31:05;;;;;;;29.93;9.70;;;9.70;99.90;;;;;;5051156;28;20471;-60
2023/01/03 04:33:32;;;;;;;29.13;8.63;;;;;;;;;;5055437;28;20487;-60
2023/01/03 04:35:59;;;;;;;46.00;16.80;;;9.70;99.90;;;;;;5052871;28;20480;-60
2023/01/03 04:38:27;;;;;;;31.03;11.80;;;9.70;99.90;;;;;;5039345;28;20479;-60
2023/01/03 04:40:54;;;;;;;39.47;14.73;;;9.70;99.90;;;;;;5085733;28;20794;-60
2023/01/03 04:46:13;;;;;;;38.87;12.07;;;9.50;99.90;;;;;;5030795;28;20478;-60
2023/01/03 04:48:40;;;;;;;30.77;13.50;;;;;;;;;;5057051;28;20549;-60
2023/01/03 04:51:07;;;;;;;54.73;18.53;;;;;;;;;;5061823;28;20477;-60
2023/01/03 04:53:35;;;;;;;36.10;13.20;;;;;;;;;;5066229;28;20487;-60
2023/01/03 04:56:02;;;;;;;54.23;18.03;;;9.40;99.90;;;;;;5057117;28;20515;-60
2023/01/03 04:58:29;;;;;;;29.57;10.97;;;9.40;99.90;;;;;;5056190;28;20624;-60
2023/01/03 05:01:00;;;;;;;39.23;15.47;;;9.40;99.90;;;;;;5053189;28;20721;-60
2023/01/03 05:03:27;;;;;;;32.33;10.90;;;;;;;;;;5057231;28;20578;-60
2023/01/03 05:05:57;;;;;;;33.47;11.37;;;9.40;99.90;;;;;;5057467;28;20486;-60
2023/01/03 05:08:24;;;;;;;32.07;12.00;;;9.40;99.90;;;;;;5043426;28;20483;-60
2023/01/03 05:10:52;;;;;;;29.90;10.70;;;9.40;99.90;;;;;;5049238;28;20494;-60
2023/01/03 05:13:20;;;;;;;38.03;13.27;;;;;;;;;;5072409;28;20481;-60
2023/01/03 05:15:46;;;;;;;35.10;10.97;;;9.30;99.90;;;;;;5063503;28;20476;-60
2023/01/03 05:18:13;;;;;;;33.73;12.40;;;9.20;99.90;;;;;;5064767;28;20486;-60
2023/01/03 05:26:13;;;;;;;42.70;12.93;;;8.90;99.90;;;;;;5063492;28;20529;-60
2023/01/03 05:28:40;;;;;;;42.10;18.30;;;9.20;99.90;;;;;;5054567;28;20476;-60
2023/01/03 05:31:07;;;;;;;50.43;16.03;;;9.20;99.90;;;;;;5047117;28;20482;-60
2023/01/03 05:33:34;;;;;;;24.03;8.83;;;;;;;;;;5055191;28;20537;-60
2023/01/03 05:36:01;;;;;;;37.03;12.40;;;9.20;99.90;;;;;;5054908;28;20478;-60
2023/01/03 05:38:27;;;;;;;31.80;12.27;;;9.30;99.90;;;;;;5070147;28;20882;-60
2023/01/03 05:40:54;;;;;;;35.97;10.57;;;9.30;99.90;;;;;;5078681;28;21007;-61
2023/01/03 05:43:23;;;;;;;28.03;9.30;;;;;;;;;;5054741;28;21277;-60
2023/01/03 05:45:50;;;;;;;35.07;11.20;;;;;;;;;;5071129;28;21023;-60
2023/01/03 05:48:18;;;;;;;36.97;11.83;;;;;;;;;;5077927;28;20491;-60
2023/01/03 05:50:45;;;;;;;32.23;11.27;;;9.30;99.90;;;;;;5055143;28;20739;-60
2023/01/03 05:53:12;;;;;;;32.30;11.80;;;;;;;;;;5067626;28;20470;-60
2023/01/03 05:55:40;;;;;;;34.17;11.87;;;;;;;;;;5053067;28;20763;-60
2023/01/03 05:58:07;;;;;;;39.57;13.00;;;9.20;99.90;;;;;;5063768;28;20491;-60
2023/01/03 06:00:35;;;;;;;24.47;9.57;;;9.30;99.90;;;;;;5071954;28;20933;-60
2023/01/03 06:03:02;;;;;;;39.63;14.10;;;9.30;99.90;;;;;;5054143;28;20489;-60
2023/01/03 06:05:29;;;;;;;37.53;9.00;;;7.20;99.90;;;;;;5075269;28;20481;-60
2023/01/03 06:07:56;;;;;;;36.17;11.27;;;;;;;;;;5070254;28;20497;-60
2023/01/03 06:10:22;;;;;;;34.03;11.50;;;9.30;99.90;;;;;;5077650;28;20493;-60
2023/01/03 06:12:49;;;;;;;45.53;10.30;;;9.40;99.90;;;;;;5063735;28;20489;-60
2023/01/03 06:15:16;;;;;;;28.50;7.77;;;9.50;99.90;;;;;;5067419;28;20485;-60
2023/01/03 06:17:58;;;;;;;30.30;10.53;;;9.60;99.90;;;;;;5076156;28;20930;-60
2023/01/03 06:20:26;;;;;;;33.70;11.73;;;9.60;99.90;;;;;;5039388;28;20531;-60
2023/01/03 06:22:54;;;;;;;51.10;12.37;;;;;;;;;;5055656;28;20490;-60
2023/01/03 06:25:21;;;;;;;35.17;10.03;;;;;;;;;;5073921;28;20693;-60
2023/01/03 06:27:48;;;;;;;38.67;12.90;;;;;;;;;;5051423;28;20914;-60
2023/01/03 06:30:15;;;;;;;35.60;13.07;;;9.60;99.90;;;;;;5042905;28;20491;-60
2023/01/03 06:32:44;;;;;;;32.43;11.50;;;9.60;99.90;;;;;;5071025;28;20923;-59
2023/01/03 06:35:11;;;;;;;25.60;11.20;;;9.60;99.90;;;;;;5058055;28;20483;-60
2023/01/03 06:37:37;;;;;;;22.10;10.43;;;9.60;99.90;;;;;;5064018;28;20837;-60
2023/01/03 06:40:05;;;;;;;41.67;13.93;;;9.70;99.90;;;;;;5059331;28;21000;-60
2023/01/03 06:42:39;;;;;;;21.20;10.03;;;9.80;99.90;;;;;;5065024;28;20494;-60
2023/01/03 06:53:23;;;;;;;27.97;9.53;;;;;;;;;;5044353;28;20518;-61
2023/01/03 06:55:50;;;;;;;38.90;11.80;;;9.60;99.90;;;;;;5047986;28;20484;-61
2023/01/03 06:58:17;;;;;;;31.93;10.87;;;9.50;99.90;;;;;;5047127;28;20488;-60
2023/01/03 07:00:44;;;;;;;39.07;14.10;;;9.40;99.90;;;;;;5049629;28;20483;-60
2023/01/03 07:03:12;;;;;;;41.13;12.13;;;9.40;99.90;;;;;;5072918;28;20475;-60
2023/01/03 07:05:38;;;;;;;20.77;9.10;;;9.40;99.90;;;;;;5051873;28;20502;-60
2023/01/03 07:08:05;;;;;;;41.60;14.40;;;9.30;99.90;;;;;;5055533;28;20540;-60
2023/01/03 07:10:32;;;;;;;42.70;12.77;;;;;;;;;;5052643;28;20892;-60
2023/01/03 07:15:45;;;;;;;37.17;11.90;;;9.40;99.90;;;;;;5066144;28;20523;-60
2023/01/03 07:18:13;;;;;;;31.80;11.00;;;9.40;99.90;;;;;;5064059;28;20471;-60
2023/01/03 07:20:41;;;;;;;43.87;13.00;;;9.40;99.90;;;;;;5067837;28;20676;-60
2023/01/03 07:23:08;;;;;;;50.20;15.47;;;9.50;99.90;;;;;;5053473;28;20479;-60
2023/01/03 07:25:39;;;;;;;37.10;12.60;;;;;;;;;;5061623;28;20481;-60
2023/01/03 07:28:06;;;;;;;43.33;15.47;;;9.50;99.90;;;;;;5051813;28;20485;-60
2023/01/03 07:30:38;;;;;;;32.47;12.10;;;9.40;99.90;;;;;;5066111;28;20492;-61
2023/01/03 07:33:05;;;;;;;36.17;15.03;;;9.50;99.90;;;;;;5068849;28;20648;-61
2023/01/03 07:35:34;;;;;;;26.07;12.03;;;9.50;99.90;;;;;;5056932;28;20851;-61
2023/01/03 07:38:01;;;;;;;40.70;15.90;;;9.50;99.90;;;;;;5049534;28;20493;-61
2023/01/03 07:40:28;;;;;;;47.40;15.57;;;9.50;99.90;;;;;;5050313;28;20503;-61
2023/01/03 07:45:41;;;;;;;36.40;12.77;;;9.60;99.90;;;;;;5064418;28;20481;-61
2023/01/03 07:48:08;;;;;;;47.77;15.90;;;9.60;99.90;;;;;;5057183;28;20507;-61
2023/01/03 07:50:36;;;;;;;58.33;14.80;;;5.80;99.90;;;;;;5056123;28;20498;-61
2023/01/03 07:53:03;;;;;;;49.93;15.10;;;9.60;99.90;;;;;;5070857;28;20469;-61
2023/01/03 07:55:31;;;;;;;36.27;12.00;;;9.60;99.90;;;;;;5076625;28;20486;-61
2023/01/03 07:57:58;;;;;;;47.23;14.77;;;9.60;99.90;;;;;;5052210;28;20533;-61
2023/01/03 08:00:24;;;;;;;44.20;14.77;;;9.60;99.90;;;;;;5043581;28;20475;-61
2023/01/03 08:02:53;;;;;;;46.43;15.97;;;9.60;99.90;;;;;;5080094;28;20494;-61
2023/01/03 08:05:20;;;;;;;34.53;11.60;;;9.50;99.90;;;;;;5053225;28;20494;-61
2023/01/03 08:07:48;;;;;;;30.50;12.77;;;9.50;99.90;;;;;;5048055;28;20502;-61
2023/01/03 08:13:18;;;;;;;47.37;17.43;;;9.30;99.90;;;;;;5055460;28;20528;-60
2023/01/03 08:15:45;;;;;;;36.87;12.40;;;;;;;;;;5057071;28;20487;-61
2023/01/03 08:18:13;;;;;;;46.57;15.60;;;9.20;99.90;;;;;;5058005;28;20487;-61
2023/01/03 08:20:39;;;;;;;57.07;16.77;;;9.10;99.90;;;;;;5048146;28;20888;-60
2023/01/03 08:23:08;;;;;;;46.00;16.93;;;;;;;;;;5052843;28;20473;-61
2023/01/03 08:25:35;;;;;;;37.83;11.43;;;;;;;;;;5075254;28;20572;-60
2023/01/03 08:28:02;;;;;;;61.57;17.33;;;;;;;;;;5083533;28;20494;-60
2023/01/03 08:30:29;;;;;;;42.17;12.87;;;9.00;99.90;;;;;;5053951;28;20904;-60
2023/01/03 08:32:58;;;;;;;51.03;15.27;;;9.10;99.90;;;;;;5059922;28;20502;-60
2023/01/03 08:35:27;;;;;;;31.57;11.70;;;9.10;99.90;;;;;;5073586;28;20501;-60
2023/01/03 08:37:54;;;;;;;45.23;12.47;;;9.10;99.90;;;;;;5061781;28;20481;-60
2023/01/03 08:40:23;;;;;;;47.07;17.67;;;;;;;;;;5071903;28;20725;-60
2023/01/03 08:42:50;;;;;;;35.13;11.40;;;;;;;;;;5048318;28;20489;-60
2023/01/03 08:45:18;;;;;;;32.97;12.77;;;9.30;99.90;;;;;;5070223;28;20560;-60
2023/01/03 08:47:46;;;;;;;45.10;15.10;;;9.40;99.90;;;;;;5058863;28;20579;-60
2023/01/03 08:50:14;;;;;;;36.63;13.13;;;9.40;99.90;;;;;;5074176;28;20490;-60
2023/01/03 08:52:41;;;;;;;35.90;12.37;;;9.50;99.90;;;;;;5056527;28;20898;-61
2023/01/03 08:55:08;;;;;;;51.90;15.50;;;9.50;99.90;;;;;;5043185;28;20467;-60
2023/01/03 08:57:36;;;;;;;38.30;11.13;;;9.50;99.90;;;;;;5075805;28;20486;-61
2023/01/03 09:00:04;;;;;;;38.80;16.30;;;9.50;99.90;;;;;;5061095;28;20506;-61
2023/01/03 09:02:34;;;;;;;24.50;11.63;;;9.40;99.90;;;;;;5047979;28;20562;-60
2023/01/03 09:05:01;;;;;;;32.03;13.40;;;;;;;;;;5056216;28;20922;-60
2023/01/03 09:07:27;;;;;;;24.37;10.37;;;9.50;99.90;;;;;;5059575;28;20478;-60
2023/01/03 09:09:54;;;;;;;25.67;11.33;;;9.70;99.90;;;;;;5071263;28;20489;-61
2023/01/03 09:12:21;;;;;;;23.40;9.43;;;9.90;99.90;;;;;;5073761;28;21125;-60
2023/01/03 09:14:49;;;;;;;23.83;11.50;;;10.00;99.90;;;;;;5064762;28;20478;-60
2023/01/03 09:17:16;;;;;;;27.80;11.20;;;;;;;;;;5067128;28;20493;-60
2023/01/03 09:19:43;;;;;;;31.53;11.30;;;;;;;;;;5076139;28;20888;-60
2023/01/03 09:22:10;;;;;;;23.83;10.80;;;10.30;99.90;;;;;;5085087;28;20509;-60
2023/01/03 09:24:36;;;;;;;20.10;10.10;;;10.30;99.90;;;;;;5064343;28;20494;-60
2023/01/03 09:27:03;;;;;;;23.00;11.80;;;10.30;99.90;;;;;;5070590;28;20476;-61
2023/01/03 09:29:30;;;;;;;22.90;8.87;;;10.30;99.90;;;;;;5067758;28;20937;-60
2023/01/03 09:32:00;;;;;;;30.67;12.70;;;10.20;99.90;;;;;;5064978;28;20691;-61
2023/01/03 09:34:26;;;;;;;26.17;9.20;;;10.00;99.90;;;;;;5045917;28;20535;-62
2023/01/03 09:36:53;;;;;;;21.00;9.43;;;9.80;99.90;;;;;;5075824;28;20506;-61
2023/01/03 09:39:20;;;;;;;24.13;11.03;;;9.70;99.90;;;;;;5047677;28;20487;-61
2023/01/03 09:43:11;;;;;;;45.80;10.60;;;9.70;99.90;;;;;;5045345;28;21245;-60
2023/01/03 09:44:34;;;;;;;30.90;11.00;;;9.60;99.90;;;;;;5059837;28;20484;-60
2023/01/03 09:47:03;;;;;;;33.40;11.10;;;9.60;99.90;;;;;;5052948;28;21028;-61
2023/01/03 09:49:30;;;;;;;20.87;9.03;;;9.50;99.90;;;;;;5048405;28;20549;-60
2023/01/03 10:06:10;;;;;;;45.63;13.80;;;;;;;;;;5075845;28;22235;-61
2023/01/03 10:08:46;;;;;;;26.27;7.20;;;9.80;99.90;;;;;;5066616;28;20485;-61
2023/01/03 10:11:20;;;;;;;39.87;12.40;;;;;;;;;;5055877;28;21012;-60
2023/01/03 10:13:57;;;;;;;39.33;14.50;;;9.70;99.90;;;;;;5057768;28;20477;-61
2023/01/03 10:16:34;;;;;;;28.20;11.90;;;9.60;99.90;;;;;;5066184;28;20712;-60
2023/01/03 10:19:17;;;;;;;35.90;14.77;;;9.50;99.90;;;;;;5052158;28;20790;-60
2023/01/03 10:21:51;;;;;;;38.63;13.90;;;9.60;99.90;;;;;;5062124;28;20481;-60
2023/01/03 10:24:22;;;;;;;38.13;15.00;;;;;;;;;;5056503;28;20479;-60
2023/01/03 10:26:53;;;;;;;45.97;16.03;;;9.50;99.90;;;;;;5065766;28;20779;-60
2023/01/03 10:29:20;;;;;;;34.53;10.07;;;9.50;99.90;;;;;;5034956;28;20499;-61
2023/01/03 10:32:05;;;;;;;35.73;14.13;;;9.50;99.90;;;;;;5049039;28;20471;-60
2023/01/03 10:34:33;;;;;;;38.53;14.67;;;9.50;99.90;;;;;;5045445;28;21016;-60
2023/01/03 10:37:16;;;;;;;47.30;18.63;;;;;;;;;;5049476;28;21190;-61
2023/01/03 10:39:43;;;;;;;30.50;9.43;;;9.60;99.90;;;;;;5035051;28;21112;-60
2023/01/03 10:42:18;;;;;;;27.90;9.50;;;9.60;99.90;;;;;;5068299;28;20487;-61
2023/01/03 10:44:57;;;;;;;22.20;9.77;;;9.60;99.90;;;;;;5048276;28;20789;-60
2023/01/03 10:47:25;;;;;;;24.30;9.10;;;9.50;99.90;;;;;;5050159;28;20836;-61
2023/01/03 10:49:58;;;;;;;32.87;9.47;;;9.60;99.90;;;;;;5051814;28;20474;-60
2023/01/03 10:52:29;;;;;;;28.23;9.10;;;;;;;;;;5035881;28;20481;-61
2023/01/03 10:55:01;;;;;;;46.87;12.80;;;9.50;99.90;;;;;;5066740;28;20469;-61
2023/01/03 10:57:36;;;;;;;27.03;7.93;;;9.50;99.90;;;;;;5036576;28;20576;-60
2023/01/03 11:00:22;;;;;;;33.13;10.33;;;9.50;99.90;;;;;;5072898;28;21132;-61
2023/01/03 11:02:49;;;;;;;32.17;7.60;;;;;;;;;;5062252;28;20492;-61
2023/01/03 11:05:19;;;;;;;35.33;11.50;;;9.50;99.90;;;;;;5063308;28;21065;-60
2023/01/03 11:07:54;;;;;;;54.07;12.43;;;9.50;99.90;;;;;;5046534;28;20479;-61
2023/01/03 11:10:22;;;;;;;42.07;14.83;;;9.50;99.90;;;;;;5052041;28;20572;-61
2023/01/03 11:12:49;;;;;;;32.17;11.73;;;9.40;99.90;;;;;;5054757;28;20485;-61
2023/01/03 11:15:18;;;;;;;27.30;8.13;;;9.40;99.90;;;;;;5072112;28;21409;-61
2023/01/03 11:17:55;;;;;;;25.40;10.93;;;9.30;99.90;;;;;;5038331;28;20679;-61
2023/01/03 11:20:40;;;;;;;39.37;13.33;;;9.50;99.90;;;;;;5072991;28;20478;-60
2023/01/03 11:23:15;;;;;;;42.97;14.70;;;9.40;99.90;;;;;;5052067;28;20820;-60
2023/01/03 11:25:53;;;;;;;29.63;11.50;;;9.30;99.90;;;;;;5059817;28;20487;-60
2023/01/03 11:28:47;;;;;;;32.17;11.37;;;9.40;99.90;;;;;;5052994;28;20487;-60
2023/01/03 11:31:32;;;;;;;22.20;8.63;;;9.50;99.90;;;;;;5039952;28;20886;-60
2023/01/03 11:34:05;;;;;;;34.40;12.00;;;;;;;;;;5046549;28;20480;-61
2023/01/03 11:36:45;;;;;;;22.87;9.23;;;9.40;99.90;;;;;;5048634;28;20742;-59
2023/01/03 11:39:25;;;;;;;22.63;8.37;;;9.40;99.90;;;;;;5036966;28;20484;-61
2023/01/03 11:42:05;;;;;;;38.53;9.90;;;;;;;;;;5057203;28;20494;-60
2023/01/03 11:44:53;;;;;;;27.03;9.20;;;9.50;99.90;;;;;;5052075;28;20478;-60
2023/01/03 11:47:30;;;;;;;28.30;10.33;;;9.50;99.90;;;;;;5041514;28;20490;-61
2023/01/03 11:50:11;;;;;;;28.07;8.40;;;9.70;99.90;;;;;;5075710;28;21196;-61
2023/01/03 11:52:47;;;;;;;33.07;10.73;;;9.70;99.90;;;;;;5056918;28;20476;-60
2023/01/03 11:55:40;;;;;;;25.10;7.60;;;9.70;99.90;;;;;;5044526;28;20486;-60
2023/01/03 11:58:27;;;;;;;37.40;11.37;;;9.80;99.90;;;;;;5047246;28;20916;-61
2023/01/03 12:01:05;;;;;;;32.13;9.63;;;9.80;99.90;;;;;;5048713;28;20487;-60
2023/01/03 12:03:39;;;;;;;34.80;7.90;;;;;;;;;;5056936;28;20485;-60
2023/01/03 12:06:10;;;;;;;29.27;11.70;;;9.80;99.90;;;;;;5057169;28;20475;-60
2023/01/03 12:08:59;;;;;;;23.63;9.87;;;9.80;99.90;;;;;;5044183;28;20976;-60
2023/01/03 12:11:54;;;;;;;31.00;9.00;;;9.90;99.90;;;;;;5052635;28;20466;-61
2023/01/03 12:14:23;;;;;;;24.70;10.43;;;;;;;;;;5022757;28;20564;-61
2023/01/03 12:16:55;;;;;;;33.50;13.33;;;9.70;99.90;;;;;;5074583;28;20477;-61
2023/01/03 12:19:30;;;;;;;34.20;11.20;;;9.50;99.90;;;;;;5060290;28;20568;-60
2023/01/03 12:22:02;;;;;;;50.73;11.03;;;9.60;99.90;;;;;;5058298;28;20495;-61
2023/01/03 12:24:33;;;;;;;36.57;9.00;;;;;;;;;;5069917;28;20985;-61
2023/01/03 12:27:05;;;;;;;45.53;16.17;;;9.70;99.90;;;;;;5049675;28;20476;-60
2023/01/03 12:29:50;;;;;;;30.27;10.43;;;9.70;99.90;;;;;;5079560;28;20800;-61
2023/01/03 12:32:23;;;;;;;22.77;9.57;;;9.80;99.90;;;;;;5042627;28;20503;-60
2023/01/03 12:34:52;;;;;;;29.33;11.00;;;;;;;;;;5072295;28;20501;-60
2023/01/03 12:37:23;;;;;;;30.97;9.67;;;9.90;99.90;;;;;;5054076;28;20475;-60
2023/01/03 12:39:55;;;;;;;40.27;12.20;;;10.10;99.90;;;;;;5050679;28;20494;-60
2023/01/03 12:42:33;;;;;;;30.97;11.77;;;10.20;99.90;;;;;;5034592;28;20483;-60
2023/01/03 12:45:14;;;;;;;50.50;16.67;;;10.70;99.90;;;;;;5081083;28;20475;-61
2023/01/03 12:47:48;;;;;;;30.10;11.03;;;10.30;99.90;;;;;;5043687;28;20570;-61
2023/01/03 12:50:21;;;;;;;43.90;14.97;;;10.40;99.90;;;;;;5062727;28;20873;-61
2023/01/03 12:52:56;;;;;;;33.93;12.90;;;10.50;99.90;;;;;;5057463;28;20853;-61
2023/01/03 12:55:36;;;;;;;28.50;12.27;;;10.50;99.90;;;;;;5077885;28;20546;-61
2023/01/03 12:58:27;;;;;;;49.17;16.30;;;10.50;99.90;;;;;;5076159;28;20494;-61
2023/01/03 13:01:00;;;;;;;21.73;10.77;;;10.40;99.90;;;;;;5058375;28;20761;-61
2023/01/03 13:03:33;;;;;;;35.00;11.70;;;10.50;99.90;;;;;;5060744;28;20487;-60
2023/01/03 13:06:04;;;;;;;37.30;14.13;;;10.50;99.90;;;;;;5053234;28;20485;-61
2023/01/03 13:08:35;;;;;;;27.30;10.10;;;10.40;99.90;;;;;;5061405;28;20610;-61
2023/01/03 13:11:07;;;;;;;35.83;14.30;;;10.40;99.90;;;;;;5039526;28;20483;-61
2023/01/03 13:13:35;;;;;;;26.60;9.03;;;8.60;99.90;;;;;;5044302;28;20485;-60
2023/01/03 13:16:30;;;;;;;37.53;11.67;;;9.70;99.90;;;;;;5066880;28;20485;-60
2023/01/03 13:19:35;;;;;;;41.73;16.47;;;10.30;99.90;;;;;;5052857;28;20481;-61
2023/01/03 13:22:04;;;;;;;35.97;15.40;;;;;;;;;;5063695;28;20486;-60
2023/01/03 13:24:40;;;;;;;36.03;12.80;;;;;;;;;;5042231;28;20979;-60
2023/01/03 13:27:34;;;;;;;49.03;16.80;;;;;;;;;;5079500;28;20465;-60
2023/01/03 13:30:02;;;;;;;36.23;15.80;;;;;;;;;;5037076;28;20566;-61
2023/01/03 13:32:30;;;;;;;38.87;14.20;;;10.00;99.90;;;;;;5048215;28;20491;-60
2023/01/03 13:35:16;;;;;;;34.20;13.53;;;;;;;;;;5051054;28;20850;-60
2023/01/03 13:37:45;;;;;;;35.20;14.43;;;10.00;99.90;;;;;;5044417;28;20471;-60
2023/01/03 13:40:31;;;;;;;54.97;18.17;;;9.90;99.90;;;;;;5049306;28;20572;-61
2023/01/03 13:43:12;;;;;;;38.17;15.03;;;9.90;99.90;;;;;;5043168;28;20485;-60
2023/01/03 13:45:51;;;;;;;41.70;15.83;;;9.80;99.90;;;;;;5042613;28;20483;-60
2023/01/03 13:48:20;;;;;;;31.43;12.67;;;9.70;99.90;;;;;;5081304;28;20895;-61
2023/01/03 13:51:03;;;;;;;40.60;13.90;;;;;;;;;;5061950;28;20494;-61
2023/01/03 13:53:36;;;;;;;38.07;12.27;;;9.50;99.90;;;;;;5060725;28;20489;-60
2023/01/03 13:56:20;;;;;;;58.97;21.50;;;;;;;;;;5056673;28;20567;-61
2023/01/03 13:58:51;;;;;;;44.73;13.60;;;9.50;99.90;;;;;;5050579;28;20942;-60
2023/01/03 14:01:28;;;;;;;29.97;11.97;;;9.50;99.90;;;;;;5064383;28;20472;-61
2023/01/03 14:04:18;;;;;;;40.13;15.60;;;9.60;99.90;;;;;;5022948;27;20538;-61
2023/01/03 14:07:06;;;;;;;61.07;17.77;;;;;;;;;;5064305;28;20477;-61
2023/01/03 14:09:47;;;;;;;40.50;15.50;;;9.70;99.90;;;;;;5053601;28;20484;-61
2023/01/03 14:12:57;;;;;;;41.60;15.60;;;9.70;99.90;;;;;;5070157;28;20884;-61
2023/01/03 14:15:26;;;;;;;50.50;16.80;;;9.70;99.90;;;;;;5050102;28;20611;-61
2023/01/03 14:17:56;;;;;;;67.27;16.40;;;9.70;99.90;;;;;;5067147;28;20557;-61
2023/01/03 14:20:26;;;;;;;65.70;21.90;;;9.60;99.90;;;;;;5049980;28;20567;-61
2023/01/03 14:22:54;;;;;;;51.00;17.50;;;;;;;;;;5058162;28;20485;-61
2023/01/03 14:25:34;;;;;;;49.50;14.70;;;9.50;99.90;;;;;;5054485;28;20699;-61